createdAt,value
2023-04-18T00:00:35.050Z,10.80
2023-04-18T00:03:04.690Z,10.80
2023-04-18T00:05:32.004Z,10.70
2023-04-18T00:07:58.962Z,10.70
2023-04-18T00:10:26.155Z,10.70
2023-04-18T00:12:53.748Z,10.60
2023-04-18T00:15:20.734Z,10.70
2023-04-18T00:17:48.536Z,10.60
2023-04-18T00:20:15.546Z,10.60
2023-04-18T00:22:48.618Z,10.60
2023-04-18T00:25:18.350Z,10.60
2023-04-18T00:27:45.360Z,10.50
2023-04-18T00:30:12.518Z,10.50
2023-04-18T00:32:39.652Z,10.40
2023-04-18T00:35:06.931Z,10.40
2023-04-18T00:37:34.389Z,10.30
2023-04-18T00:40:01.412Z,10.30
2023-04-18T00:42:29.723Z,10.30
2023-04-18T00:44:56.624Z,10.30
2023-04-18T00:47:23.662Z,10.30
2023-04-18T00:49:50.837Z,10.30
2023-04-18T00:52:18.868Z,10.30
2023-04-18T00:54:46.959Z,10.20
2023-04-18T00:57:14.087Z,10.20
2023-04-18T00:59:41.106Z,10.10
2023-04-18T01:02:08.202Z,10.10
2023-04-18T01:04:35.397Z,10.10
2023-04-18T01:07:03.116Z,10.10
2023-04-18T01:09:30.565Z,10.10
2023-04-18T01:11:57.646Z,10.00
2023-04-18T01:14:24.794Z,10.00
2023-04-18T01:16:51.939Z,10.00
2023-04-18T01:19:18.962Z,10.00
2023-04-18T01:21:45.957Z,9.90
2023-04-18T01:24:14.362Z,9.90
2023-04-18T01:26:46.697Z,9.90
2023-04-18T01:29:14.253Z,9.80
2023-04-18T01:31:41.872Z,9.80
2023-04-18T01:34:09.338Z,9.80
2023-04-18T01:36:37.001Z,9.80
2023-04-18T01:39:04.074Z,9.80
2023-04-18T01:41:33.091Z,9.80
2023-04-18T01:44:00.421Z,9.70
2023-04-18T01:46:27.842Z,9.80
2023-04-18T01:48:55.360Z,9.70
2023-04-18T01:51:22.657Z,9.70
2023-04-18T01:53:50.023Z,9.70
2023-04-18T01:56:17.286Z,9.70
2023-04-18T01:58:44.210Z,9.70
2023-04-18T02:01:11.281Z,9.60
2023-04-18T02:03:38.407Z,9.60
2023-04-18T02:06:06.449Z,9.60
2023-04-18T02:08:36.146Z,9.50
2023-04-18T02:11:03.275Z,9.50
2023-04-18T02:13:30.183Z,9.50
2023-04-18T02:15:57.129Z,9.40
2023-04-18T02:18:25.181Z,9.40
2023-04-18T02:20:52.269Z,9.40
2023-04-18T02:23:19.482Z,9.30
2023-04-18T02:25:49.454Z,9.30
2023-04-18T02:28:16.554Z,9.30
2023-04-18T02:30:43.587Z,9.30
2023-04-18T02:33:10.570Z,9.30
2023-04-18T02:35:38.041Z,9.30
2023-04-18T02:38:05.046Z,9.30
2023-04-18T02:40:31.981Z,9.30
2023-04-18T02:42:59.031Z,9.20
2023-04-18T02:45:26.189Z,9.20
2023-04-18T02:47:56.239Z,9.10
2023-04-18T02:50:24.637Z,9.00
2023-04-18T02:52:51.830Z,9.00
2023-04-18T02:55:19.191Z,9.00
2023-04-18T02:57:46.229Z,8.90
2023-04-18T03:00:13.893Z,8.90
2023-04-18T03:02:41.297Z,8.90
2023-04-18T03:05:09.008Z,8.90
2023-04-18T03:07:36.357Z,8.80
2023-04-18T03:10:03.409Z,8.80
2023-04-18T03:12:30.897Z,8.80
2023-04-18T03:14:57.827Z,8.80
2023-04-18T03:17:25.183Z,8.70
2023-04-18T03:19:52.238Z,8.70
2023-04-18T03:22:23.290Z,8.60
2023-04-18T03:24:50.392Z,8.60
2023-04-18T03:27:17.683Z,8.60
2023-04-18T03:29:44.651Z,8.60
2023-04-18T03:32:11.886Z,8.60
2023-04-18T03:34:38.893Z,8.60
2023-04-18T03:37:05.862Z,8.60
2023-04-18T03:39:33.030Z,8.60
2023-04-18T03:42:05.370Z,8.50
2023-04-18T03:44:32.334Z,8.50
2023-04-18T03:46:59.342Z,8.50
2023-04-18T03:49:26.296Z,8.50
2023-04-18T03:51:53.342Z,8.40
2023-04-18T03:54:20.349Z,8.40
2023-04-18T03:56:47.343Z,8.40
2023-04-18T03:59:14.426Z,8.30
2023-04-18T04:01:41.594Z,8.30
2023-04-18T04:04:09.604Z,8.30
2023-04-18T04:06:36.800Z,8.20
2023-04-18T04:09:03.797Z,8.20
2023-04-18T04:11:30.736Z,8.20
2023-04-18T04:13:57.683Z,8.20
2023-04-18T04:16:24.796Z,8.10
2023-04-18T04:18:58.273Z,8.10
2023-04-18T04:21:25.427Z,8.00
2023-04-18T04:23:52.539Z,7.90
2023-04-18T04:26:19.573Z,7.80
2023-04-18T04:28:47.647Z,7.80
2023-04-18T04:31:14.804Z,7.80
2023-04-18T04:33:42.887Z,7.80
2023-04-18T04:36:09.931Z,7.80
2023-04-18T04:38:38.659Z,7.70
2023-04-18T04:41:09.565Z,7.70
2023-04-18T04:43:36.788Z,7.70
2023-04-18T04:46:04.573Z,7.60
2023-04-18T04:48:31.625Z,7.60
2023-04-18T04:50:59.873Z,7.60
2023-04-18T04:53:28.383Z,7.70
2023-04-18T04:55:55.439Z,7.60
2023-04-18T04:58:22.449Z,7.50
2023-04-18T05:00:51.175Z,7.50
2023-04-18T05:03:18.852Z,7.50
2023-04-18T05:05:45.989Z,7.40
2023-04-18T05:08:13.005Z,7.50
2023-04-18T05:10:40.050Z,7.50
2023-04-18T05:13:07.012Z,7.50
2023-04-18T05:15:34.699Z,7.50
2023-04-18T05:18:01.728Z,7.50
2023-04-18T05:20:28.792Z,7.50
2023-04-18T05:22:55.791Z,7.50
2023-04-18T05:25:22.815Z,7.50
2023-04-18T05:27:50.374Z,7.50
2023-04-18T05:30:17.475Z,7.50
2023-04-18T05:32:44.506Z,7.50
2023-04-18T05:35:11.670Z,7.50
2023-04-18T05:37:38.686Z,7.50
2023-04-18T05:40:06.356Z,7.50
2023-04-18T05:42:33.310Z,7.50
2023-04-18T05:45:00.334Z,7.50
2023-04-18T05:47:28.812Z,7.60
2023-04-18T05:49:55.968Z,7.50
2023-04-18T05:52:23.210Z,7.60
2023-04-18T05:54:51.133Z,7.60
2023-04-18T05:57:18.118Z,7.60
2023-04-18T05:59:45.121Z,7.70
2023-04-18T06:02:13.918Z,7.70
2023-04-18T06:04:42.173Z,7.70
2023-04-18T06:07:10.256Z,7.80
2023-04-18T06:09:37.350Z,7.80
2023-04-18T06:12:04.437Z,7.90
2023-04-18T06:14:31.477Z,8.00
2023-04-18T06:16:58.612Z,8.00
2023-04-18T06:19:25.947Z,8.10
2023-04-18T06:21:53.364Z,8.20
2023-04-18T06:24:20.625Z,8.20
2023-04-18T06:26:47.687Z,8.30
2023-04-18T06:29:14.753Z,8.30
2023-04-18T06:31:42.452Z,8.40
2023-04-18T06:34:09.606Z,8.50
2023-04-18T06:36:36.737Z,8.60
2023-04-18T06:39:04.083Z,8.70
2023-04-18T06:41:31.561Z,8.70
2023-04-18T06:46:28.610Z,8.70
2023-04-18T06:48:55.686Z,8.70
2023-04-18T06:51:22.690Z,8.70
2023-04-18T06:53:53.042Z,8.70
2023-04-18T06:56:21.401Z,8.70
2023-04-18T06:58:48.440Z,8.80
2023-04-18T07:01:16.254Z,8.90
2023-04-18T07:03:43.387Z,9.00
2023-04-18T07:06:11.179Z,9.10
2023-04-18T07:08:38.290Z,9.10
2023-04-18T07:11:05.935Z,9.10
2023-04-18T07:13:32.947Z,9.00
2023-04-18T07:16:00.021Z,9.10
2023-04-18T07:18:37.661Z,9.10
2023-04-18T07:21:07.886Z,9.30
2023-04-18T07:23:35.488Z,9.40
2023-04-18T07:26:03.297Z,9.40
2023-04-18T07:28:33.409Z,9.60
2023-04-18T07:31:01.489Z,9.80
2023-04-18T07:33:31.856Z,10.00
2023-04-18T07:35:58.888Z,10.10
2023-04-18T07:38:26.060Z,10.20
2023-04-18T07:40:59.532Z,10.20
2023-04-18T07:43:27.154Z,10.20
2023-04-18T07:45:54.374Z,10.20
2023-04-18T07:48:25.548Z,10.10
2023-04-18T07:50:52.657Z,10.20
2023-04-18T07:53:19.771Z,10.30
2023-04-18T07:55:46.873Z,10.30
2023-04-18T07:58:14.207Z,10.40
2023-04-18T08:00:42.814Z,10.50
2023-04-18T08:03:13.190Z,10.70
2023-04-18T08:05:41.491Z,10.70
2023-04-18T08:08:09.681Z,10.70
2023-04-18T08:10:36.863Z,10.80
2023-04-18T08:13:03.983Z,10.90
2023-04-18T08:15:32.951Z,11.00
2023-04-18T08:18:00.513Z,11.10
2023-04-18T08:20:27.704Z,11.00
2023-04-18T08:23:05.150Z,11.20
2023-04-18T08:25:36.633Z,11.40
2023-04-18T08:28:04.326Z,11.50
2023-04-18T08:30:31.725Z,11.50
2023-04-18T08:33:01.822Z,11.70
2023-04-18T08:35:28.946Z,11.80
2023-04-18T08:37:56.051Z,12.00
2023-04-18T08:40:23.899Z,12.10
2023-04-18T08:42:52.778Z,12.10
2023-04-18T08:45:24.551Z,12.20
2023-04-18T08:47:52.446Z,12.30
2023-04-18T08:50:20.086Z,12.30
2023-04-18T08:52:50.231Z,12.40
2023-04-18T08:55:17.292Z,12.40
2023-04-18T08:57:44.410Z,12.60
2023-04-18T09:00:12.029Z,12.70
2023-04-18T09:02:43.130Z,12.80
2023-04-18T09:05:20.014Z,12.90
2023-04-18T09:07:48.045Z,12.60
2023-04-18T09:10:25.191Z,12.60
2023-04-18T09:12:52.468Z,12.60
2023-04-18T09:15:23.471Z,12.70
2023-04-18T09:17:53.374Z,12.80
2023-04-18T09:20:26.210Z,12.90
2023-04-18T09:22:54.525Z,13.00
2023-04-18T09:25:35.191Z,13.20
2023-04-18T09:28:02.614Z,13.30
2023-04-18T09:30:30.795Z,13.40
2023-04-18T09:32:59.420Z,13.50
2023-04-18T09:35:26.950Z,13.50
2023-04-18T09:37:53.994Z,13.50
2023-04-18T09:40:21.424Z,13.40
2023-04-18T09:42:48.474Z,13.50
2023-04-18T09:45:15.752Z,13.50
2023-04-18T09:47:42.861Z,13.60
2023-04-18T09:50:11.203Z,13.70
2023-04-18T09:52:39.242Z,13.80
2023-04-18T09:55:07.970Z,13.70
2023-04-18T09:57:35.554Z,13.70
2023-04-18T10:00:02.511Z,13.70
2023-04-18T10:02:31.688Z,13.70
2023-04-18T10:04:59.443Z,13.90
2023-04-18T10:07:26.961Z,14.10
2023-04-18T10:09:54.093Z,14.00
2023-04-18T10:12:21.329Z,14.10
2023-04-18T10:14:48.457Z,14.10
2023-04-18T10:17:16.139Z,13.90
2023-04-18T10:19:44.527Z,13.80
2023-04-18T10:22:12.159Z,13.80
2023-04-18T10:24:49.963Z,13.80
2023-04-18T10:27:17.857Z,14.00
2023-04-18T10:29:51.999Z,14.30
2023-04-18T10:32:24.912Z,14.50
2023-04-18T10:34:53.803Z,14.20
2023-04-18T10:37:20.896Z,14.00
2023-04-18T10:39:54.150Z,13.90
2023-04-18T10:42:41.003Z,13.80
2023-04-18T10:45:17.860Z,13.90
2023-04-18T10:47:44.959Z,14.00
2023-04-18T10:50:13.088Z,14.10
2023-04-18T10:52:40.265Z,14.10
2023-04-18T10:55:10.358Z,14.10
2023-04-18T10:57:47.537Z,13.90
2023-04-18T11:00:16.308Z,13.80
2023-04-18T11:02:50.625Z,13.80
2023-04-18T11:05:21.696Z,13.80
2023-04-18T11:07:51.710Z,13.80
2023-04-18T11:10:22.632Z,13.70
2023-04-18T11:12:49.777Z,13.80
2023-04-18T11:15:20.365Z,13.60
2023-04-18T11:17:54.949Z,13.50
2023-04-18T11:20:21.976Z,13.70
2023-04-18T11:22:48.952Z,13.70
2023-04-18T11:25:16.735Z,13.70
2023-04-18T11:27:44.283Z,13.70
2023-04-18T11:30:11.788Z,13.70
2023-04-18T11:32:38.866Z,13.70
2023-04-18T11:35:06.952Z,13.60
2023-04-18T11:37:33.970Z,13.70
2023-04-18T11:40:00.934Z,13.80
2023-04-18T11:42:28.872Z,14.00
2023-04-18T11:44:55.974Z,14.00
2023-04-18T11:47:30.056Z,14.00
2023-04-18T11:50:04.209Z,14.10
2023-04-18T11:52:31.931Z,14.20
2023-04-18T11:55:10.906Z,14.00
2023-04-18T11:57:37.930Z,14.00
2023-04-18T12:00:07.141Z,14.10
2023-04-18T12:02:44.266Z,14.20
2023-04-18T12:05:12.252Z,14.20
2023-04-18T12:07:43.312Z,14.20
2023-04-18T12:10:26.976Z,14.30
2023-04-18T12:12:54.899Z,14.40
2023-04-18T12:15:25.477Z,14.40
2023-04-18T12:17:52.614Z,14.30
2023-04-18T12:20:20.300Z,14.30
2023-04-18T12:22:49.944Z,14.10
2023-04-18T12:25:26.938Z,14.20
2023-04-18T12:27:56.233Z,14.50
2023-04-18T12:30:24.123Z,14.60
2023-04-18T12:32:55.242Z,14.70
2023-04-18T12:35:23.210Z,14.60
2023-04-18T12:37:51.180Z,14.90
2023-04-18T12:40:19.384Z,15.20
2023-04-18T12:42:47.083Z,15.40
2023-04-18T12:45:14.902Z,15.40
2023-04-18T12:47:42.577Z,15.00
2023-04-18T12:50:13.305Z,15.00
2023-04-18T12:52:41.029Z,15.10
2023-04-18T12:55:08.450Z,15.20
2023-04-18T12:57:35.843Z,15.50
2023-04-18T13:00:05.818Z,15.50
2023-04-18T13:02:37.525Z,15.60
2023-04-18T13:05:05.748Z,15.70
2023-04-18T13:07:33.180Z,15.50
2023-04-18T13:10:00.321Z,15.30
2023-04-18T13:12:27.232Z,15.30
2023-04-18T13:14:54.318Z,15.30
2023-04-18T13:17:21.254Z,15.60
2023-04-18T13:19:49.126Z,15.90
2023-04-18T13:22:16.312Z,15.90
2023-04-18T13:24:43.240Z,15.90
2023-04-18T13:27:13.223Z,16.00
2023-04-18T13:29:41.466Z,16.00
2023-04-18T13:32:09.267Z,16.10
2023-04-18T13:34:42.467Z,16.20
2023-04-18T13:37:09.630Z,16.00
2023-04-18T13:39:36.873Z,16.30
2023-04-18T13:42:04.716Z,16.60
2023-04-18T13:44:31.696Z,16.80
2023-04-18T13:46:59.288Z,16.90
2023-04-18T13:49:26.301Z,16.80
2023-04-18T13:51:59.053Z,16.90
2023-04-18T13:54:27.031Z,17.20
2023-04-18T13:56:54.651Z,17.40
2023-04-18T13:59:21.687Z,17.30
2023-04-18T14:01:49.537Z,17.50
2023-04-18T14:04:16.952Z,17.70
2023-04-18T14:06:44.114Z,17.50
2023-04-18T14:09:11.199Z,17.30
2023-04-18T14:11:38.575Z,17.30
2023-04-18T14:14:06.077Z,17.40
2023-04-18T14:16:33.770Z,17.30
2023-04-18T14:19:01.761Z,17.10
2023-04-18T14:21:29.419Z,16.90
2023-04-18T14:23:56.558Z,17.20
2023-04-18T14:26:23.678Z,17.30
2023-04-18T14:28:50.710Z,17.30
2023-04-18T14:31:17.797Z,17.20
2023-04-18T14:33:45.041Z,17.00
2023-04-18T14:36:15.192Z,16.90
2023-04-18T14:38:42.524Z,16.90
2023-04-18T14:41:09.660Z,16.80
2023-04-18T14:43:36.915Z,16.90
2023-04-18T14:46:03.876Z,16.90
2023-04-18T14:48:30.930Z,17.00
2023-04-18T14:50:58.566Z,17.10
2023-04-18T14:53:25.705Z,17.30
2023-04-18T14:55:52.909Z,17.60
2023-04-18T14:58:19.951Z,17.80
2023-04-18T15:00:46.936Z,17.80
2023-04-18T15:03:13.987Z,17.80
2023-04-18T15:05:43.298Z,18.00
2023-04-18T15:08:11.665Z,18.10
2023-04-18T15:10:39.093Z,18.20
2023-04-18T15:13:06.137Z,18.30
2023-04-18T15:15:35.900Z,18.40
2023-04-18T15:18:03.202Z,18.60
2023-04-18T15:20:30.578Z,18.60
2023-04-18T15:22:57.753Z,18.70
2023-04-18T15:25:26.244Z,18.80
2023-04-18T15:27:53.255Z,19.00
2023-04-18T15:30:20.511Z,18.80
2023-04-18T15:32:48.635Z,18.60
2023-04-18T15:35:15.624Z,18.30
2023-04-18T15:37:42.562Z,18.20
2023-04-18T15:40:11.426Z,18.40
2023-04-18T15:42:39.870Z,18.30
2023-04-18T15:45:08.139Z,18.30
2023-04-18T15:47:35.127Z,18.20
2023-04-18T15:50:03.758Z,18.10
2023-04-18T15:52:30.847Z,17.90
2023-04-18T15:55:01.365Z,17.70
2023-04-18T15:57:29.959Z,17.30
2023-04-18T15:59:57.548Z,17.00
2023-04-18T16:02:24.580Z,16.80
2023-04-18T16:04:51.593Z,16.80
2023-04-18T16:07:18.717Z,16.90
2023-04-18T16:09:45.723Z,16.90
2023-04-18T16:12:12.710Z,17.10
2023-04-18T16:14:39.669Z,17.30
2023-04-18T16:17:06.605Z,17.60
2023-04-18T16:19:36.219Z,17.70
2023-04-18T16:22:03.530Z,17.70
2023-04-18T16:24:31.358Z,17.70
2023-04-18T16:26:58.781Z,17.90
2023-04-18T16:29:25.896Z,17.90
2023-04-18T16:31:53.198Z,18.00
2023-04-18T16:34:20.189Z,18.20
2023-04-18T16:36:47.706Z,18.30
2023-04-18T16:39:16.188Z,18.10
2023-04-18T16:41:43.223Z,18.10
2023-04-18T16:44:10.264Z,18.10
2023-04-18T16:46:37.309Z,17.90
2023-04-18T16:49:04.288Z,18.10
2023-04-18T16:51:31.508Z,18.20
2023-04-18T16:53:58.484Z,18.30
2023-04-18T16:56:25.504Z,18.40
2023-04-18T16:58:52.480Z,18.30
2023-04-18T17:01:19.462Z,18.00
2023-04-18T17:03:46.660Z,17.60
2023-04-18T17:06:13.766Z,17.40
2023-04-18T17:08:40.723Z,17.20
2023-04-18T17:11:07.735Z,17.20
2023-04-18T17:13:36.212Z,17.20
2023-04-18T17:16:03.618Z,17.00
2023-04-18T17:18:30.729Z,16.80
2023-04-18T17:20:57.726Z,16.70
2023-04-18T17:23:24.893Z,16.60
2023-04-18T17:25:51.862Z,16.60
2023-04-18T17:28:18.899Z,16.50
2023-04-18T17:30:46.206Z,16.40
2023-04-18T17:33:13.154Z,16.50
2023-04-18T17:35:43.141Z,16.40
2023-04-18T17:38:11.075Z,16.30
2023-04-18T17:40:41.227Z,16.30
2023-04-18T17:43:08.143Z,16.10
2023-04-18T17:45:35.194Z,16.20
2023-04-18T17:48:03.300Z,16.10
2023-04-18T17:50:30.484Z,15.90
2023-04-18T17:52:57.818Z,15.70
2023-04-18T17:55:26.373Z,15.60
2023-04-18T17:57:53.341Z,15.50
2023-04-18T18:00:20.339Z,15.40
2023-04-18T18:02:47.593Z,15.40
2023-04-18T18:05:14.968Z,15.30
2023-04-18T18:07:46.155Z,15.20
2023-04-18T18:10:19.260Z,15.10
2023-04-18T18:12:46.455Z,15.00
2023-04-18T18:15:13.399Z,14.90
2023-04-18T18:17:40.642Z,14.80
2023-04-18T18:20:09.141Z,14.70
2023-04-18T18:22:36.436Z,14.70
2023-04-18T18:25:04.526Z,14.60
2023-04-18T18:27:31.582Z,14.60
2023-04-18T18:29:58.618Z,14.50
2023-04-18T18:32:27.450Z,14.40
2023-04-18T18:34:54.671Z,14.30
2023-04-18T18:37:23.447Z,14.30
2023-04-18T18:39:50.440Z,14.20
2023-04-18T18:42:17.433Z,14.20
2023-04-18T18:44:44.542Z,14.20
2023-04-18T18:47:11.622Z,14.00
2023-04-18T18:49:38.598Z,14.00
2023-04-18T18:52:05.719Z,13.90
2023-04-18T18:54:32.750Z,13.80
2023-04-18T18:57:02.404Z,13.70
2023-04-18T18:59:29.781Z,13.70
2023-04-18T19:01:56.902Z,13.70
2023-04-18T19:04:24.943Z,13.60
2023-04-18T19:06:52.044Z,13.50
2023-04-18T19:09:19.027Z,13.50
2023-04-18T19:11:49.289Z,13.40
2023-04-18T19:14:16.330Z,13.40
2023-04-18T19:16:43.373Z,13.40
2023-04-18T19:19:10.779Z,13.40
2023-04-18T19:21:40.055Z,13.30
2023-04-18T19:24:07.108Z,13.30
2023-04-18T19:26:34.156Z,13.10
2023-04-18T19:29:01.234Z,13.10
2023-04-18T19:31:28.352Z,13.10
2023-04-18T19:34:01.878Z,13.10
2023-04-18T19:36:29.105Z,13.00
2023-04-18T19:38:56.319Z,13.00
2023-04-18T19:41:24.280Z,13.00
2023-04-18T19:43:51.424Z,13.00
2023-04-18T19:46:18.712Z,13.00
2023-04-18T19:48:45.816Z,12.90
2023-04-18T19:51:12.921Z,12.90
2023-04-18T19:53:40.027Z,12.90
2023-04-18T19:56:07.227Z,12.80
2023-04-18T19:58:36.023Z,12.80
2023-04-18T20:01:06.199Z,12.80
2023-04-18T20:03:34.721Z,12.80
2023-04-18T20:06:05.425Z,12.70
2023-04-18T20:08:39.615Z,12.60
2023-04-18T20:11:10.640Z,12.60
2023-04-18T20:13:37.974Z,12.60
2023-04-18T20:16:05.681Z,12.50
2023-04-18T20:18:34.292Z,12.50
2023-04-18T20:21:02.428Z,12.40
2023-04-18T20:23:29.826Z,12.50
2023-04-18T20:26:31.098Z,12.40
2023-04-18T20:29:18.481Z,12.40
2023-04-18T20:34:49.609Z,12.40
2023-04-18T20:37:19.977Z,12.30
2023-04-18T20:39:47.752Z,12.30
2023-04-18T20:42:15.060Z,12.30
2023-04-18T20:44:43.522Z,12.30
2023-04-18T20:47:10.783Z,12.20
2023-04-18T20:49:38.568Z,12.20
2023-04-18T20:52:07.983Z,12.20
2023-04-18T20:54:35.051Z,12.10
2023-04-18T20:57:02.879Z,12.10
2023-04-18T20:59:30.256Z,12.20
2023-04-18T21:01:57.394Z,12.20
2023-04-18T21:04:28.924Z,12.10
2023-04-18T21:06:55.973Z,12.10
2023-04-18T21:09:23.443Z,12.00
2023-04-18T21:11:50.420Z,12.00
2023-04-18T21:14:17.562Z,12.00
2023-04-18T21:16:44.627Z,12.00
2023-04-18T21:19:12.127Z,12.00
2023-04-18T21:21:39.278Z,12.00
2023-04-18T21:24:06.443Z,11.90
2023-04-18T21:26:33.469Z,11.90
2023-04-18T21:29:01.525Z,11.80
2023-04-18T21:31:31.510Z,11.80
2023-04-18T21:33:59.535Z,11.80
2023-04-18T21:36:30.837Z,11.70
2023-04-18T21:38:58.739Z,11.70
2023-04-18T21:41:25.982Z,11.70
2023-04-18T21:43:53.357Z,11.70
2023-04-18T21:46:20.533Z,11.70
2023-04-18T21:48:48.022Z,11.70
2023-04-18T21:51:15.973Z,11.70
2023-04-18T21:53:43.276Z,11.70
2023-04-18T21:56:10.943Z,11.70
2023-04-18T21:58:38.047Z,11.70
2023-04-18T22:01:05.112Z,11.70
2023-04-18T22:03:33.739Z,11.70
2023-04-18T22:06:10.036Z,11.60
2023-04-18T22:08:36.976Z,11.70
2023-04-18T22:11:05.060Z,11.60
2023-04-18T22:13:33.373Z,11.60
2023-04-18T22:16:03.698Z,11.60
2023-04-18T22:18:33.983Z,11.60
2023-04-18T22:21:02.528Z,11.60
2023-04-18T22:23:30.269Z,11.50
2023-04-18T22:25:57.285Z,11.50
2023-04-18T22:28:26.442Z,11.50
2023-04-18T22:30:56.532Z,11.50
2023-04-18T22:33:23.970Z,11.30
2023-04-18T22:35:51.013Z,11.30
2023-04-18T22:38:18.055Z,11.30
2023-04-18T22:40:45.036Z,11.30
2023-04-18T22:43:12.051Z,11.30
2023-04-18T22:45:39.028Z,11.30
2023-04-18T22:48:06.295Z,11.30
2023-04-18T22:50:33.345Z,11.30
2023-04-18T22:53:00.258Z,11.30
2023-04-18T22:55:27.285Z,11.20
2023-04-18T22:57:54.440Z,11.20
2023-04-18T23:00:21.466Z,11.20
2023-04-18T23:02:51.824Z,11.30
2023-04-18T23:05:19.003Z,11.30
2023-04-18T23:07:46.358Z,11.20
2023-04-18T23:10:13.360Z,11.20
2023-04-18T23:12:40.296Z,11.10
2023-04-18T23:15:07.688Z,11.00
2023-04-18T23:17:37.638Z,11.00
2023-04-18T23:20:07.961Z,11.00
2023-04-18T23:22:34.951Z,11.00
2023-04-18T23:25:01.887Z,11.00
2023-04-18T23:27:28.890Z,11.00
2023-04-18T23:29:56.307Z,10.90
2023-04-18T23:32:26.166Z,10.90
2023-04-18T23:34:53.242Z,10.80
2023-04-18T23:37:21.379Z,10.80
2023-04-18T23:39:48.741Z,10.80
2023-04-18T23:42:15.788Z,10.80
2023-04-18T23:44:42.717Z,10.80
2023-04-18T23:47:09.793Z,10.90
2023-04-18T23:49:36.803Z,10.90
2023-04-18T23:52:03.994Z,10.80
2023-04-18T23:54:31.430Z,10.80
2023-04-18T23:56:58.580Z,10.80
2023-04-18T23:59:25.750Z,10.70
